Тойбеково

Карта отелей и гостиниц, располагающихся рядом с аэропортом Тойбеково :

Тойбеково Марий Эл 56° 44' 54.06" N, 48° 17' 48.48" E
Код аэродрома ИКАО
ZC6W
Код аэродрома RU
ЗЦ6В
Координаты
N56.74835° E048.29680°
Превышение над уровнем моря
154
Основная полоса
07/25
Курс магнитный
070/250
Длина основной ВПП
445
Ширина основной ВПП
20
Покрытие основной ВПП
Твёрдое (асфальт)
Освещение ВПП
Нет
Тип: 
Аэродром
Класс аэродрома: 
Принадлежность: 
ГА
Статус: 
Недействующий
Сайт: 
E-mail аэродрома: 
Страна: 
Россия
Регион: 
Марий Эл
Город: 
Дополнительная информация: 
Площадка АХР. Состояние ВПП неудовлетворительное.

Найти трансфер

С помощью этой формы Вы можете найти трансфер из аэропорта Тойбеково в город, аэропорт или вокзал:

Карта места

Javascript is required to view this map.

Погода в аэропортах:

Авиационная погода в Ургенче

Регион: 
Погода METAR: 
UTNU 170530Z 07010KT 4900 BR NSC M01/M03 Q1016 R31/CLRD70 NOSIG
Время наблюдения
2021-01-17T05:30:00Z
Температура C
-1.0
Точка росы
-3.0
Направление ветра
70
Скорость ветра (узлы)
10
Метео видимость
3.04
Явления погоды
BR
Условия полета
MVFR

Авиационная погода в Мурманске

Регион: 
Погода METAR: 
ULMM 170530Z 28003MPS 9999 -SHSN BKN016CB M02/M03 Q1005 R31/390137 NOSIG RMK QFE747
Время наблюдения
2021-01-17T05:30:00Z
Температура C
-2.0
Точка росы
-3.0
Направление ветра
280
Скорость ветра (узлы)
6
Метео видимость
6.21
Явления погоды
-SHSN
Условия полета
MVFR
Аэропорт подробнее: 

Авиационная погода в Игнатьево

Регион: 
Погода METAR: 
UHBB 170530Z 03002MPS 9999 -SN SCT033 M26/M29 Q1012 R36/420360 NOSIG RMK QFE741/0989
Время наблюдения
2021-01-17T05:30:00Z
Температура C
-26.0
Точка росы
-29.0
Направление ветра
30
Скорость ветра (узлы)
4
Метео видимость
6.21
Явления погоды
-SN
Условия полета
VFR
Аэропорт подробнее: 

Авиационная погода в Нижнем Новгороде

Регион: 
Погода METAR: 
UWGG 170530Z 34006MPS 8000 -SN OVC014 M18/M21 Q1006 R36R/490140 NOSIG
Время наблюдения
2021-01-17T05:30:00Z
Температура C
-18.0
Точка росы
-21.0
Направление ветра
340
Скорость ветра (узлы)
12
Метео видимость
4.97
Явления погоды
-SN
Условия полета
MVFR
Аэропорт подробнее: